Time;durP1;ratioP1;P1;durP2;ratioP2;P2;SDS_P1;SDS_P2;PMS_P1;PMS_P2;Temp;Humidity;BMP_temperature;BMP_pressure;BME280_temperature;BME280_humidity;BME280_pressure;Samples;Min_cycle;Max_cycle;Signal;HPM_P1;HPM_P2
2023/03/01 00:02:06;;;;;;;4.60;3.10;;;7.90;99.90;;;7.72;72.27;95434.84;5037346;28;20516;-57
2023/03/01 00:04:35;;;;;;;4.00;3.50;;;7.90;99.90;;;7.68;72.72;95437.78;5035068;28;20495;-58
2023/03/01 00:07:03;;;;;;;3.37;3.07;;;7.80;99.90;;;7.64;72.30;95431.09;5039388;28;20961;-57
2023/03/01 00:09:30;;;;;;;3.40;3.10;;;7.80;99.90;;;7.62;72.64;95427.75;5042282;28;20494;-58
2023/03/01 00:11:58;;;;;;;4.00;3.07;;;7.80;99.90;;;7.63;73.05;95429.41;5038468;28;20486;-57
2023/03/01 00:14:27;;;;;;;3.50;3.10;;;7.80;99.90;;;7.60;72.67;95416.53;5037652;28;20464;-58
2023/03/01 00:16:55;;;;;;;3.53;3.30;;;7.80;99.90;;;7.60;73.04;95416.53;5039448;28;20480;-57
2023/03/01 00:19:22;;;;;;;3.77;2.90;;;7.80;99.90;;;7.62;72.44;95414.66;5037656;28;20456;-58
2023/03/01 00:21:50;;;;;;;3.00;2.80;;;7.80;99.90;;;7.62;72.77;95412.03;5029574;28;20542;-57
2023/03/01 00:24:17;;;;;;;2.90;2.70;;;7.80;99.90;;;7.63;72.25;95416.34;5036244;28;21165;-57
2023/03/01 00:26:44;;;;;;;3.63;3.10;;;7.80;99.90;;;7.65;72.72;95409.19;5027664;28;20477;-56
2023/03/01 00:29:13;;;;;;;3.03;2.70;;;7.80;99.90;;;7.66;72.71;95414.31;5034963;28;20461;-56
2023/03/01 00:31:41;;;;;;;2.30;2.00;;;7.80;99.90;;;7.64;72.73;95402.31;5034776;28;20481;-57
2023/03/01 00:34:10;;;;;;;2.77;2.50;;;7.80;99.90;;;7.60;72.48;95398.22;5034794;28;20953;-55
2023/03/01 00:36:40;;;;;;;2.50;2.40;;;7.80;99.90;;;7.57;72.32;95394.03;5029937;28;20469;-56
2023/03/01 00:39:11;;;;;;;1.90;1.80;;;7.70;99.90;;;7.55;72.69;95393.31;5038175;28;20459;-57
2023/03/01 00:41:39;;;;;;;2.30;2.10;;;7.70;99.90;;;7.51;72.41;95395.31;5042221;28;20549;-56
2023/03/01 00:44:07;;;;;;;3.20;2.20;;;7.70;99.90;;;7.45;72.45;95390.50;5033695;28;20554;-57
2023/03/01 00:46:35;;;;;;;2.10;1.97;;;7.60;99.90;;;7.42;72.72;95393.34;5031937;28;20503;-57
2023/03/01 00:49:04;;;;;;;1.80;1.70;;;7.60;99.90;;;7.42;72.57;95395.97;5039871;28;20458;-57
2023/03/01 00:51:31;;;;;;;2.23;2.13;;;7.60;99.90;;;7.43;72.78;95392.38;5028865;28;20499;-56
2023/03/01 00:54:00;;;;;;;2.30;2.10;;;7.60;99.90;;;7.43;72.27;95384.53;5032618;28;20452;-56
2023/03/01 00:56:27;;;;;;;2.13;2.00;;;7.60;99.90;;;7.44;72.91;95388.84;5038816;28;21026;-57
2023/03/01 00:58:55;;;;;;;2.30;2.20;;;7.60;99.90;;;7.44;72.48;95382.78;5036655;28;20456;-56
2023/03/01 01:01:27;;;;;;;2.23;2.13;;;7.60;99.90;;;7.42;72.90;95385.50;5036216;28;20893;-57
2023/03/01 01:03:57;;;;;;;2.20;2.00;;;7.60;99.90;;;7.42;72.18;95387.25;5037380;28;21010;-57
2023/03/01 01:06:25;;;;;;;2.20;1.93;;;7.60;99.90;;;7.35;72.26;95392.09;5037000;28;20535;-59
2023/03/01 01:08:53;;;;;;;2.00;1.90;;;7.50;99.90;;;7.31;72.33;95390.63;5036546;28;20459;-59
2023/03/01 01:11:21;;;;;;;1.87;1.77;;;7.50;99.90;;;7.29;72.50;95402.97;5034849;28;20502;-57
2023/03/01 01:13:48;;;;;;;1.80;1.70;;;7.50;99.90;;;7.26;72.45;95400.59;5031398;28;20475;-56
2023/03/01 01:16:16;;;;;;;2.33;2.23;;;7.40;99.90;;;7.23;72.34;95398.19;5033513;28;20515;-57
2023/03/01 01:18:43;;;;;;;1.60;1.50;;;7.40;99.90;;;7.20;72.58;95390.53;5036365;28;20530;-57
2023/03/01 01:21:13;;;;;;;1.70;1.60;;;7.40;99.90;;;7.18;72.71;95390.66;5028550;28;20476;-55
2023/03/01 01:23:41;;;;;;;1.53;1.43;;;7.40;99.90;;;7.18;72.64;95390.66;5039752;28;20455;-57
2023/03/01 01:26:09;;;;;;;1.90;1.80;;;7.30;99.90;;;7.17;73.24;95375.88;5035084;28;20523;-56
2023/03/01 01:28:36;;;;;;;1.70;1.60;;;7.30;99.90;;;7.18;72.71;95375.78;5039724;28;20964;-57
2023/03/01 01:31:04;;;;;;;1.57;1.47;;;7.30;99.90;;;7.20;72.05;95396.59;5036208;28;21028;-57
2023/03/01 01:33:31;;;;;;;1.23;1.10;;;7.40;99.90;;;7.15;72.86;95383.84;5038689;28;20941;-58
2023/03/01 01:35:58;;;;;;;1.47;1.37;;;7.40;99.90;;;7.11;73.09;95390.25;5035386;28;20526;-57
2023/03/01 01:38:27;;;;;;;1.50;1.40;;;7.30;99.90;;;7.08;72.48;95398.31;5040673;28;20460;-58
2023/03/01 01:40:54;;;;;;;1.53;1.43;;;7.30;99.90;;;7.07;72.24;95401.84;5037296;28;20471;-58
2023/03/01 01:43:23;;;;;;;1.60;1.50;;;7.20;99.90;;;7.07;72.07;95399.22;5044560;28;20880;-57
2023/03/01 01:45:51;;;;;;;1.60;1.50;;;7.20;99.90;;;7.07;72.40;95406.25;5038055;28;20452;-56
2023/03/01 01:48:21;;;;;;;1.90;1.80;;;7.20;99.90;;;7.06;72.40;95405.41;5042963;28;20463;-56
2023/03/01 01:50:52;;;;;;;1.53;1.43;;;7.20;99.90;;;7.05;72.69;95400.28;5035236;28;20491;-58
2023/03/01 01:53:19;;;;;;;1.83;1.73;;;7.20;99.90;;;7.06;72.61;95394.09;5042044;28;20964;-56
2023/03/01 01:55:51;;;;;;;1.43;1.33;;;7.20;99.90;;;7.08;72.17;95395.69;5041122;28;21073;-57
2023/03/01 01:58:20;;;;;;;2.53;1.50;;;7.20;99.90;;;7.06;71.81;95399.34;5038604;28;20498;-56
2023/03/01 02:00:47;;;;;;;1.80;1.70;;;7.20;99.90;;;7.07;72.09;95395.78;5039570;28;20457;-56
2023/03/01 02:03:18;;;;;;;1.67;1.57;;;7.20;99.90;;;7.08;71.82;95386.97;5034593;28;20471;-57
2023/03/01 02:05:48;;;;;;;1.63;1.47;;;7.20;99.90;;;7.09;72.28;95388.66;5036653;28;20546;-56
2023/03/01 02:08:17;;;;;;;1.40;1.30;;;7.20;99.90;;;7.10;71.48;95372.88;5040746;28;20468;-56
2023/03/01 02:10:44;;;;;;;1.90;1.80;;;7.30;99.90;;;7.13;71.79;95374.44;5036415;28;20553;-57
2023/03/01 02:13:13;;;;;;;5.13;1.50;;;7.20;99.90;;;7.14;71.49;95370.88;5036099;28;20459;-57
2023/03/01 02:15:41;;;;;;;1.73;1.63;;;7.30;99.90;;;7.14;71.20;95363.03;5041684;28;20452;-58
2023/03/01 02:18:08;;;;;;;1.77;1.67;;;7.30;99.90;;;7.14;71.40;95363.03;5037383;28;20476;-56
2023/03/01 02:20:40;;;;;;;2.07;1.63;;;7.30;99.90;;;7.14;71.53;95361.25;5033356;28;20962;-56
2023/03/01 02:23:08;;;;;;;3.47;2.03;;;7.30;99.90;;;7.18;71.23;95364.50;5040416;28;20538;-56
2023/03/01 02:25:40;;;;;;;2.93;2.73;;;7.30;99.90;;;7.23;71.69;95361.56;5034411;28;20556;-56
2023/03/01 02:28:17;;;;;;;2.70;2.00;;;7.30;99.90;;;7.26;71.81;95358.72;5033684;28;20481;-56
2023/03/01 02:33:32;;;;;;;5.10;3.07;;;7.40;99.90;;;7.31;71.74;95377.53;5038550;28;20441;-58
2023/03/01 02:35:59;;;;;;;2.57;2.37;;;7.40;99.90;;;7.31;71.95;95370.56;5032487;28;20463;-57
2023/03/01 02:38:27;;;;;;;2.60;1.87;;;7.50;99.90;;;7.32;71.29;95376.59;5036377;28;20460;-56
2023/03/01 02:40:54;;;;;;;2.43;1.93;;;7.50;99.90;;;7.33;71.02;95378.28;5042589;28;20460;-56
2023/03/01 02:43:22;;;;;;;2.33;2.23;;;7.50;99.90;;;7.32;71.31;95384.47;5042905;28;20541;-55
2023/03/01 02:45:53;;;;;;;2.53;2.33;;;7.50;99.90;;;7.34;71.01;95382.56;5035393;28;20465;-56
2023/03/01 02:48:21;;;;;;;4.23;2.53;;;7.40;99.90;;;7.35;71.97;95379.84;5036770;28;20459;-56
2023/03/01 02:51:03;;;;;;;6.10;2.00;;;7.50;99.90;;;7.37;71.40;95374.50;5037081;28;20565;-56
2023/03/01 02:53:34;;;;;;;2.33;2.13;;;7.50;99.90;;;7.36;71.18;95381.53;5033411;28;20499;-57
2023/03/01 02:56:02;;;;;;;2.03;1.93;;;7.50;99.90;;;7.36;71.48;95375.47;5036302;28;20529;-56
2023/03/01 02:58:29;;;;;;;2.50;2.40;;;7.50;99.90;;;7.37;71.55;95371.88;5043113;28;20479;-57
2023/03/01 03:01:00;;;;;;;2.13;2.00;;;7.50;99.90;;;7.38;71.50;95378.78;5040401;28;20460;-56
2023/03/01 03:03:27;;;;;;;3.63;2.23;;;7.50;99.90;;;7.36;71.41;95376.28;5039646;28;20459;-62
2023/03/01 03:05:55;;;;;;;1.73;1.63;;;7.50;99.90;;;7.39;71.06;95374.38;5035768;28;21184;-57
2023/03/01 03:08:23;;;;;;;1.37;1.27;;;7.50;99.90;;;7.40;70.51;95371.66;5033922;28;20547;-58
2023/03/01 03:10:50;;;;;;;1.40;1.20;;;7.50;99.90;;;7.39;69.86;95370.00;5038374;28;20552;-57
2023/03/01 03:13:18;;;;;;;1.30;1.00;;;7.50;99.90;;;7.38;70.09;95373.56;5038339;28;20487;-57
2023/03/01 03:15:46;;;;;;;1.50;1.20;;;7.50;99.90;;;7.39;69.47;95377.84;5033935;28;20510;-56
2023/03/01 03:18:16;;;;;;;1.50;1.40;;;7.50;99.90;;;7.39;70.20;95380.47;5034138;28;20461;-58
2023/03/01 03:20:44;;;;;;;1.60;1.50;;;7.50;99.90;;;7.38;69.79;95383.19;5040816;28;20464;-57
2023/03/01 03:23:11;;;;;;;1.60;1.50;;;7.50;99.90;;;7.36;69.43;95385.94;5030264;28;20461;-56
2023/03/01 03:25:38;;;;;;;2.20;2.00;;;7.50;99.90;;;7.34;69.49;95383.41;5042691;28;20829;-57
2023/03/01 03:28:09;;;;;;;2.83;2.10;;;7.50;99.90;;;7.38;69.65;95389.25;5038455;28;20483;-57
2023/03/01 03:30:38;;;;;;;1.57;1.47;;;7.50;99.90;;;7.34;69.66;95388.66;5034697;28;20564;-57
2023/03/01 03:33:06;;;;;;;1.93;1.83;;;7.50;99.90;;;7.34;70.09;95385.19;5034649;28;20543;-58
2023/03/01 03:35:39;;;;;;;2.33;2.23;;;7.50;99.90;;;7.38;70.33;95388.44;5038536;28;20486;-57
2023/03/01 03:38:15;;;;;;;4.83;2.00;;;7.40;99.90;;;7.40;70.44;95389.97;5034726;28;20470;-57
2023/03/01 03:40:44;;;;;;;2.03;1.83;;;7.50;99.90;;;7.40;70.54;95397.00;5041959;28;20831;-57
2023/03/01 03:43:12;;;;;;;1.40;1.30;;;7.50;99.90;;;7.38;69.70;95391.88;5041202;28;20460;-56
2023/03/01 03:45:40;;;;;;;2.00;1.90;;;7.50;99.90;;;7.34;69.79;95401.72;5032549;28;20544;-56
2023/03/01 03:48:09;;;;;;;1.83;1.73;;;7.50;99.90;;;7.32;69.77;95389.69;5037220;28;20480;-57
2023/03/01 03:50:37;;;;;;;2.13;1.93;;;7.50;99.90;;;7.29;70.41;95395.97;5038866;28;20495;-56
2023/03/01 03:53:07;;;;;;;3.87;2.67;;;7.50;99.90;;;7.25;70.37;95398.91;5043121;28;21056;-57
2023/03/01 03:55:35;;;;;;;1.87;1.77;;;7.40;99.90;;;7.26;70.41;95397.97;5033461;28;20476;-60
2023/03/01 03:58:06;;;;;;;1.60;1.50;;;7.40;99.90;;;7.25;70.49;95398.91;5039931;28;20588;-57
2023/03/01 04:00:34;;;;;;;1.50;1.40;;;7.40;99.90;;;7.24;69.98;95408.53;5034283;28;20453;-57
2023/03/01 04:03:01;;;;;;;1.93;1.83;;;7.40;99.90;;;7.22;70.41;95391.25;5040996;28;20476;-57
2023/03/01 04:05:29;;;;;;;2.00;1.90;;;7.40;99.90;;;7.15;70.46;95404.75;5035228;28;20467;-58
2023/03/01 04:08:06;;;;;;;1.70;1.60;;;7.30;99.90;;;7.09;70.18;95397.34;5037495;28;20637;-58
2023/03/01 04:10:36;;;;;;;1.83;1.43;;;7.30;99.90;;;7.06;70.91;95404.56;5030791;28;20448;-58
2023/03/01 04:13:03;;;;;;;1.30;1.20;;;7.20;99.90;;;7.03;68.83;95402.16;5036651;28;20930;-58
2023/03/01 04:15:32;;;;;;;1.37;1.27;;;7.20;99.90;;;6.98;69.45;95407.72;5035859;28;20457;-56
2023/03/01 04:17:59;;;;;;;1.93;1.20;;;7.20;99.90;;;6.95;69.67;95402.69;5036676;28;20472;-57
2023/03/01 04:20:28;;;;;;;0.93;0.83;;;7.10;99.90;;;6.95;68.74;95403.50;5032198;28;20560;-58
2023/03/01 04:23:08;;;;;;;1.40;1.30;;;7.10;99.90;;;6.94;67.48;95403.63;5041018;28;20624;-58
2023/03/01 04:25:36;;;;;;;4.20;1.20;;;7.10;99.90;;;6.92;69.20;95406.34;5040056;28;20832;-58
2023/03/01 04:28:03;;;;;;;1.37;1.27;;;7.00;99.90;;;6.92;68.55;95397.66;5034526;28;20477;-57
2023/03/01 04:30:35;;;;;;;2.37;1.30;;;7.10;99.90;;;6.90;68.18;95399.56;5037173;28;20459;-58
2023/03/01 04:33:04;;;;;;;1.20;1.10;;;7.10;99.90;;;6.88;68.64;95396.19;5040499;28;20557;-56
2023/03/01 04:35:31;;;;;;;4.50;1.40;;;7.00;99.90;;;6.85;68.47;95397.25;5035408;28;20559;-56
2023/03/01 04:38:00;;;;;;;1.20;1.10;;;7.00;99.90;;;6.85;68.94;95402.47;5036637;28;21004;-57
2023/03/01 04:40:27;;;;;;;1.37;1.10;;;7.00;99.90;;;6.85;68.98;95399.00;5038986;28;20459;-57
2023/03/01 04:42:55;;;;;;;4.90;3.70;;;7.00;99.90;;;6.84;68.64;95384.28;5033556;28;20578;-58
2023/03/01 04:45:22;;;;;;;1.30;1.20;;;7.00;99.90;;;6.83;68.95;95380.81;5039567;28;21027;-58
2023/03/01 04:47:51;;;;;;;3.50;3.20;;;7.00;99.90;;;6.80;68.72;95389.72;5040118;28;20493;-58
2023/03/01 04:50:21;;;;;;;3.67;3.37;;;7.00;99.90;;;6.79;69.25;95382.81;5033216;28;20898;-58
2023/03/01 04:52:48;;;;;;;4.50;3.70;;;7.00;99.90;;;6.77;69.50;95384.69;5043522;28;20499;-56
2023/03/01 04:55:17;;;;;;;2.20;2.10;;;6.90;99.90;;;6.75;69.78;95383.94;5034541;28;20516;-58
2023/03/01 04:57:44;;;;;;;2.93;1.50;;;6.90;99.90;;;6.74;70.34;95390.13;5038224;28;20480;-57
2023/03/01 05:00:20;;;;;;;3.57;1.67;;;6.90;99.90;;;6.74;69.80;95390.13;5031054;28;20452;-58
2023/03/01 05:02:54;;;;;;;2.73;1.47;;;6.90;99.90;;;6.74;70.58;95381.44;5035874;28;20487;-57
2023/03/01 05:05:25;;;;;;;2.27;1.70;;;6.90;99.90;;;6.73;69.95;95377.16;5031546;28;20448;-58
2023/03/01 05:07:55;;;;;;;3.50;1.43;;;6.90;99.90;;;6.76;70.84;95385.63;5038944;28;20637;-57
2023/03/01 05:10:24;;;;;;;2.50;1.03;;;6.90;99.90;;;6.81;70.77;95385.31;5031429;28;20443;-58
2023/03/01 05:12:52;;;;;;;1.30;1.20;;;7.00;99.90;;;6.86;71.79;95393.69;5038165;28;20492;-58
2023/03/01 05:15:21;;;;;;;8.33;1.30;;;7.00;99.90;;;6.92;72.28;95395.06;5035225;28;20460;-58
2023/03/01 05:17:49;;;;;;;3.83;2.23;;;7.00;99.90;;;6.97;72.30;95396.41;5035362;28;20566;-57
2023/03/01 05:20:17;;;;;;;5.40;2.40;;;7.10;99.90;;;7.05;72.32;95400.28;5045892;28;20797;-58
2023/03/01 05:22:44;;;;;;;3.53;2.23;;;7.20;99.90;;;7.11;71.50;95397.22;5040414;28;20479;-57
2023/03/01 05:25:13;;;;;;;2.50;2.30;;;7.20;99.90;;;7.15;71.60;95403.94;5034700;28;20552;-57
2023/03/01 05:27:42;;;;;;;3.30;2.10;;;7.30;99.90;;;7.23;71.63;95400.78;5040888;28;20559;-58
2023/03/01 05:30:14;;;;;;;3.00;1.50;;;7.30;99.90;;;7.26;71.08;95400.59;5037428;28;20470;-57
2023/03/01 05:32:44;;;;;;;4.13;1.33;;;7.40;99.90;;;7.28;70.27;95385.59;5030943;28;20585;-57
2023/03/01 05:35:13;;;;;;;1.73;1.63;;;7.40;99.90;;;7.28;70.50;95390.84;5038443;28;20452;-57
2023/03/01 05:37:42;;;;;;;1.87;1.77;;;7.40;99.90;;;7.24;69.87;95397.25;5043498;28;20614;-57
2023/03/01 05:40:15;;;;;;;3.63;2.70;;;7.40;99.90;;;7.18;70.35;95407.16;5044115;28;20571;-57
2023/03/01 05:42:44;;;;;;;4.77;3.00;;;7.30;99.90;;;7.10;69.32;95400.81;5038695;28;20547;-57
2023/03/01 05:45:13;;;;;;;3.80;3.53;;;7.30;99.90;;;7.01;70.25;95407.50;5043149;28;20967;-58
2023/03/01 05:47:43;;;;;;;3.00;2.80;;;7.20;99.90;;;6.96;70.21;95407.00;5043962;28;20509;-58
2023/03/01 05:50:13;;;;;;;3.63;3.33;;;7.10;99.90;;;6.95;70.61;95406.13;5033853;28;20567;-56
2023/03/01 05:52:40;;;;;;;6.80;3.97;;;7.10;99.90;;;6.96;70.32;95414.84;5037422;28;21024;-57
2023/03/01 05:55:09;;;;;;;6.77;4.40;;;7.00;99.90;;;6.93;70.34;95415.03;5035304;28;20551;-57
2023/03/01 05:57:36;;;;;;;9.50;4.43;;;7.10;99.90;;;6.90;70.26;95416.06;5043686;28;21034;-55
2023/03/01 06:00:07;;;;;;;7.13;4.90;;;7.00;99.90;;;6.90;70.32;95428.31;5037932;28;22373;-58
2023/03/01 06:02:34;;;;;;;4.13;3.40;;;7.10;99.90;;;6.92;71.08;95423.81;5043655;28;20921;-56
2023/03/01 06:05:02;;;;;;;8.70;3.90;;;7.10;99.90;;;6.93;70.87;95425.50;5037171;28;20448;-61
2023/03/01 06:07:29;;;;;;;6.93;4.50;;;7.10;99.90;;;6.92;70.33;95434.28;5039759;28;20569;-57
2023/03/01 06:09:56;;;;;;;5.40;4.87;;;7.10;99.90;;;6.89;70.54;95430.06;5042037;28;20528;-57
2023/03/01 06:12:24;;;;;;;9.63;4.77;;;7.10;99.90;;;6.90;70.82;95430.94;5040035;28;20699;-58
2023/03/01 06:14:51;;;;;;;4.67;4.27;;;7.00;99.90;;;6.91;70.49;95427.38;5037244;28;20906;-56
2023/03/01 06:17:19;;;;;;;4.90;4.40;;;7.10;99.90;;;6.91;70.82;95433.44;5042085;28;20902;-56
2023/03/01 06:19:48;;;;;;;4.40;3.67;;;7.10;99.90;;;6.92;71.06;95439.50;5037486;28;20541;-57
2023/03/01 06:22:15;;;;;;;5.77;3.83;;;7.10;99.90;;;6.90;71.11;95442.22;5037731;28;21393;-56
2023/03/01 06:24:42;;;;;;;4.80;3.40;;;7.10;99.90;;;6.91;71.28;95441.28;5038547;28;21018;-57
2023/03/01 06:27:09;;;;;;;6.20;4.83;;;7.00;99.90;;;6.94;71.25;95442.84;5031385;28;20569;-58
2023/03/01 06:29:36;;;;;;;4.40;3.77;;;7.10;99.90;;;6.97;70.43;95437.41;5042150;28;20689;-59
2023/03/01 06:32:04;;;;;;;5.07;4.67;;;7.10;99.90;;;6.95;70.58;95439.31;5036229;28;20496;-58
2023/03/01 06:34:33;;;;;;;4.53;4.23;;;7.10;99.90;;;6.93;70.71;95444.63;5041485;28;20456;-57
2023/03/01 06:37:04;;;;;;;5.03;4.30;;;7.10;99.90;;;6.95;70.83;95440.13;5032532;28;20541;-58
2023/03/01 06:39:32;;;;;;;4.90;4.50;;;7.10;99.90;;;6.97;70.80;95443.50;5040715;28;20476;-58
2023/03/01 06:41:59;;;;;;;6.50;4.50;;;7.10;99.90;;;7.00;71.24;95443.28;5035314;28;20476;-57
2023/03/01 06:44:26;;;;;;;6.47;4.00;;;7.10;99.90;;;7.04;71.36;95443.91;5036044;28;20510;-56
2023/03/01 06:46:54;;;;;;;5.07;4.40;;;7.20;99.90;;;7.06;71.39;95442.00;5033661;28;20476;-57
2023/03/01 06:49:21;;;;;;;3.10;2.80;;;7.20;99.90;;;7.07;70.93;95446.31;5037101;28;20499;-57
2023/03/01 06:51:49;;;;;;;4.13;3.20;;;7.20;99.90;;;7.05;70.37;95444.72;5041126;28;20495;-57
2023/03/01 06:54:17;;;;;;;4.63;3.80;;;7.20;99.90;;;7.05;70.64;95453.44;5036995;28;20977;-56
2023/03/01 06:56:47;;;;;;;2.80;2.60;;;7.20;99.90;;;7.07;70.91;95443.69;5039390;28;20559;-56
2023/03/01 06:59:14;;;;;;;4.57;3.20;;;7.20;99.90;;;7.07;71.00;95442.88;5032786;28;20457;-57
2023/03/01 07:01:42;;;;;;;5.73;3.40;;;7.20;99.90;;;7.07;70.79;95454.16;5033293;28;20477;-56
2023/03/01 07:04:09;;;;;;;5.70;3.50;;;7.20;99.90;;;7.06;70.27;95439.41;5036737;28;20507;-58
2023/03/01 07:06:36;;;;;;;8.40;3.67;;;7.20;99.90;;;7.09;71.06;95446.22;5040265;28;20476;-57
2023/03/01 07:09:05;;;;;;;4.20;3.07;;;7.20;99.90;;;7.09;70.69;95447.03;5035060;28;20555;-56
2023/03/01 07:11:33;;;;;;;3.70;3.40;;;7.20;99.90;;;7.13;69.99;95443.28;5037255;28;20476;-57
2023/03/01 07:14:00;;;;;;;5.53;3.00;;;7.30;99.90;;;7.12;70.49;95441.59;5038887;28;20531;-56
2023/03/01 07:16:28;;;;;;;4.53;4.10;;;7.30;99.90;;;7.17;70.00;95439.53;5031354;28;20547;-58
2023/03/01 07:18:55;;;;;;;2.80;2.60;;;7.30;99.90;;;7.20;70.57;95446.31;5037587;28;20457;-57
2023/03/01 07:21:22;;;;;;;4.33;3.57;;;7.30;99.90;;;7.24;70.35;95447.78;5034814;28;20484;-57
2023/03/01 07:23:50;;;;;;;7.37;3.77;;;7.40;99.90;;;7.24;70.19;95432.09;5034594;28;20453;-56
2023/03/01 07:26:18;;;;;;;4.57;3.50;;;7.40;99.90;;;7.27;69.83;95433.66;5034982;28;21354;-58
2023/03/01 07:28:46;;;;;;;5.73;4.00;;;7.40;99.90;;;7.30;69.52;95430.84;5041810;28;20460;-57
2023/03/01 07:31:13;;;;;;;9.80;3.47;;;7.40;99.90;;;7.34;70.01;95427.03;5034893;28;20485;-58
2023/03/01 07:33:40;;;;;;;12.53;3.67;;;7.50;99.90;;;7.42;69.40;95429.13;5034213;28;21012;-58
2023/03/01 07:36:09;;;;;;;18.93;2.60;;;7.50;99.90;;;7.46;69.99;95428.81;5037073;28;21148;-57
2023/03/01 07:38:36;;;;;;;3.40;2.77;;;7.60;99.90;;;7.51;69.68;95434.59;5035258;28;20457;-58
2023/03/01 07:41:05;;;;;;;2.87;2.67;;;7.60;99.90;;;7.52;69.29;95433.63;5032234;28;20808;-56
2023/03/01 07:43:34;;;;;;;2.70;2.50;;;7.70;99.90;;;7.54;69.06;95431.75;5033039;28;20463;-58
2023/03/01 07:46:02;;;;;;;2.60;2.50;;;7.70;99.90;;;7.58;68.92;95426.31;5036831;28;20460;-57
2023/03/01 07:48:29;;;;;;;13.40;3.10;;;7.70;99.90;;;7.58;68.71;95431.53;5036487;28;20456;-56
2023/03/01 07:50:59;;;;;;;3.00;2.63;;;7.70;99.90;;;7.59;68.74;95423.56;5035644;28;20452;-57
2023/03/01 07:53:26;;;;;;;2.80;2.50;;;7.70;99.90;;;7.61;69.04;95426.91;5035765;28;20495;-57
2023/03/01 07:56:02;;;;;;;2.97;2.70;;;7.80;99.90;;;7.65;68.96;95420.53;5031520;28;20456;-57
2023/03/01 07:58:30;;;;;;;3.47;3.10;;;7.80;99.90;;;7.70;69.02;95412.34;5031232;28;20558;-58
2023/03/01 08:01:02;;;;;;;3.37;3.17;;;7.80;99.90;;;7.76;69.15;95413.66;5037579;28;20444;-58
2023/03/01 08:03:29;;;;;;;6.80;3.77;;;7.90;99.90;;;7.81;68.44;95411.59;5035153;28;21047;-58
2023/03/01 08:05:57;;;;;;;3.57;3.17;;;7.90;99.90;;;7.87;68.36;95417.22;5033272;28;20448;-56
2023/03/01 08:08:24;;;;;;;2.90;2.70;;;8.00;99.90;;;7.92;68.49;95419.50;5035100;28;20949;-56
2023/03/01 08:10:51;;;;;;;2.90;2.63;;;8.00;99.90;;;7.95;67.99;95413.19;5030974;28;20505;-58
2023/03/01 08:13:22;;;;;;;2.40;2.20;;;8.10;99.90;;;7.97;68.12;95404.28;5030172;28;20573;-58
2023/03/01 08:15:49;;;;;;;4.43;2.60;;;8.10;99.90;;;8.00;68.04;95400.59;5035028;28;20532;-58
2023/03/01 08:18:18;;;;;;;2.70;2.00;;;8.10;99.90;;;8.01;67.03;95412.75;5039664;28;20459;-58
2023/03/01 08:20:46;;;;;;;3.70;2.77;;;8.10;99.90;;;8.00;67.45;95409.28;5032346;28;21062;-56
2023/03/01 08:23:13;;;;;;;4.80;3.50;;;8.10;99.90;;;8.03;67.81;95409.06;5039394;28;20795;-56
2023/03/01 08:25:41;;;;;;;4.77;2.50;;;8.10;99.90;;;8.08;67.45;95404.31;5037693;28;20890;-58
2023/03/01 08:28:08;;;;;;;8.83;2.90;;;8.20;99.90;;;8.11;67.08;95405.06;5035347;28;20963;-59
2023/03/01 08:30:36;;;;;;;4.60;3.70;;;8.20;99.90;;;8.13;66.45;95401.38;5038020;28;20453;-58
2023/03/01 08:33:03;;;;;;;2.53;2.30;;;8.30;99.90;;;8.19;66.74;95406.16;5035066;28;21015;-56
2023/03/01 08:35:31;;;;;;;4.63;2.40;;;8.30;99.90;;;8.24;66.81;95403.22;5040326;28;20466;-57
2023/03/01 08:37:59;;;;;;;5.50;2.57;;;8.40;99.90;;;8.26;66.45;95396.09;5039232;28;20488;-57
2023/03/01 08:40:26;;;;;;;2.13;1.87;;;8.40;99.90;;;8.28;65.82;95403.84;5035089;28;20456;-56
2023/03/01 08:42:53;;;;;;;7.23;2.30;;;8.40;99.90;;;8.26;66.25;95403.97;5035850;28;20549;-58
2023/03/01 08:45:21;;;;;;;5.10;1.93;;;8.40;99.90;;;8.28;66.64;95411.72;5033099;28;20897;-58
2023/03/01 08:47:48;;;;;;;2.70;1.97;;;8.40;99.90;;;8.29;66.22;95395.88;5033290;28;20498;-58
2023/03/01 08:50:16;;;;;;;2.70;2.50;;;8.40;99.90;;;8.30;66.14;95400.16;5029558;28;20451;-57
2023/03/01 08:52:45;;;;;;;3.10;2.90;;;8.50;99.90;;;8.31;66.78;95398.38;5035930;28;20496;-58
2023/03/01 08:55:13;;;;;;;2.97;2.77;;;8.50;99.90;;;8.38;66.59;95402.19;5035470;28;20510;-57
2023/03/01 08:57:40;;;;;;;8.27;2.80;;;8.50;99.90;;;8.47;66.43;95398.09;5036340;28;20538;-58
2023/03/01 09:00:11;;;;;;;3.73;2.63;;;8.60;99.90;;;8.58;65.82;95403.38;5034126;28;20506;-56
2023/03/01 09:02:38;;;;;;;3.13;2.90;;;8.70;99.90;;;8.66;65.61;95402.81;5032937;28;20464;-58
2023/03/01 09:05:06;;;;;;;3.27;3.07;;;8.80;99.90;;;8.74;65.57;95396.03;5032935;28;20464;-59
2023/03/01 09:07:34;;;;;;;2.73;2.63;;;8.80;99.90;;;8.82;64.83;95398.09;5039376;28;20476;-56
2023/03/01 09:10:02;;;;;;;3.20;2.60;;;8.90;99.90;;;8.87;65.14;95398.56;5035607;28;20627;-56
2023/03/01 09:12:30;;;;;;;3.60;3.30;;;9.00;99.90;;;8.93;64.86;95394.66;5035900;28;20561;-57
2023/03/01 09:14:57;;;;;;;3.20;3.00;;;9.00;99.90;;;9.05;65.05;95403.38;5034707;28;20632;-57
2023/03/01 09:17:24;;;;;;;8.30;2.47;;;9.10;99.90;;;9.15;63.43;95406.97;5032406;28;20465;-59
2023/03/01 09:19:52;;;;;;;4.50;2.40;;;9.20;99.90;;;9.14;63.95;95397.44;5033973;28;20464;-58
2023/03/01 09:22:19;;;;;;;2.63;2.43;;;9.30;99.90;;;9.13;63.03;95398.38;5032579;28;20499;-57
2023/03/01 09:24:46;;;;;;;2.20;2.10;;;9.30;99.90;;;9.14;62.63;95407.94;5028345;28;20506;-58
2023/03/01 09:27:18;;;;;;;2.03;1.93;;;9.30;99.90;;;9.15;62.62;95399.94;5033381;28;20487;-58
2023/03/01 09:29:45;;;;;;;2.13;2.03;;;9.30;99.90;;;9.20;63.11;95391.72;5035950;28;20866;-57
2023/03/01 09:32:13;;;;;;;3.93;2.10;;;9.30;99.90;;;9.32;62.96;95390.72;5028763;28;20822;-58
2023/03/01 09:37:21;;;;;;;2.00;1.90;;;9.50;99.90;;;9.45;62.54;95392.41;5036772;28;20675;-58
2023/03/01 09:39:49;;;;;;;2.90;1.60;;;9.60;99.90;;;9.46;62.26;95384.41;5031528;28;20459;-58
2023/03/01 09:42:17;;;;;;;1.67;1.57;;;9.60;99.90;;;9.52;62.20;95380.47;5034440;28;20473;-58
2023/03/01 09:44:48;;;;;;;3.23;2.93;;;9.60;99.90;;;9.63;61.69;95371.75;5038519;28;20505;-57
2023/03/01 09:47:19;;;;;;;2.30;2.20;;;9.70;99.90;;;9.73;61.29;95382.34;5034452;28;20739;-58
2023/03/01 09:49:59;;;;;;;1.60;1.50;;;9.80;99.70;;;9.73;61.44;95388.47;5031931;28;20790;-58
2023/03/01 09:52:31;;;;;;;5.33;1.63;;;9.80;99.30;;;9.73;61.57;95385.84;5032208;28;20859;-58
2023/03/01 09:54:58;;;;;;;2.60;1.60;;;9.80;99.60;;;9.74;61.17;95368.28;5038725;28;20968;-57
2023/03/01 09:57:37;;;;;;;3.00;2.47;;;9.90;99.60;;;9.74;60.59;95374.34;5035192;28;20480;-56
2023/03/01 10:00:19;;;;;;;2.40;2.20;;;9.90;98.90;;;9.79;60.97;95371.34;5038578;28;20452;-57
2023/03/01 10:02:49;;;;;;;1.97;1.77;;;9.90;99.20;;;9.87;61.36;95361.09;5033683;28;20525;-57
2023/03/01 10:05:38;;;;;;;1.43;1.33;;;9.90;99.60;;;10.00;60.65;95364.38;5040415;28;20519;-57
2023/03/01 10:08:38;;;;;;;3.13;1.70;;;10.10;98.80;;;10.08;59.75;95361.13;5035654;28;20547;-57
2023/03/01 10:11:06;;;;;;;1.93;1.40;;;10.10;98.00;;;10.04;60.39;95355.28;5034545;28;20515;-57
2023/03/01 10:13:46;;;;;;;2.20;1.63;;;10.10;98.20;;;10.01;60.46;95359.97;5036542;28;20571;-57
2023/03/01 10:16:16;;;;;;;2.03;1.63;;;10.10;98.10;;;10.00;59.96;95364.38;5038050;28;20479;-55
2023/03/01 10:18:43;;;;;;;1.43;1.33;;;10.10;97.80;;;9.96;59.79;95362.97;5034563;28;20467;-57
2023/03/01 10:21:16;;;;;;;1.80;1.70;;;10.10;97.70;;;10.00;59.78;95348.59;5036713;28;20506;-57
2023/03/01 10:23:43;;;;;;;1.40;1.30;;;10.10;97.70;;;10.07;59.83;95354.22;5035756;28;20829;-56
2023/03/01 10:26:37;;;;;;;1.40;1.23;;;10.10;97.70;;;10.17;59.81;95349.03;5040630;28;20823;-57
2023/03/01 10:29:07;;;;;;;2.43;1.50;;;10.20;97.90;;;10.23;59.68;95345.91;5039899;28;20444;-56
2023/03/01 10:31:40;;;;;;;1.40;1.30;;;10.30;97.60;;;10.24;59.00;95347.59;5038781;28;20499;-57
2023/03/01 10:34:16;;;;;;;2.13;1.93;;;10.30;97.30;;;10.31;59.23;95347.91;5036830;28;20499;-57
2023/03/01 10:36:49;;;;;;;3.30;1.90;;;10.40;97.40;;;10.26;58.87;95357.97;5043996;28;20468;-57
2023/03/01 10:39:18;;;;;;;2.07;1.97;;;10.40;96.80;;;10.17;59.27;95344.59;5035507;28;20452;-58
2023/03/01 10:42:10;;;;;;;2.03;1.80;;;10.30;97.00;;;10.15;59.25;95337.81;5038918;28;20469;-58
2023/03/01 10:44:47;;;;;;;14.93;2.10;;;10.30;97.10;;;10.26;58.99;95342.22;5035700;28;20475;-58
2023/03/01 10:47:21;;;;;;;1.80;1.53;;;10.40;97.10;;;10.40;58.52;95355.06;5038500;28;20468;-58